Time;durP1;ratioP1;P1;durP2;ratioP2;P2;SDS_P1;SDS_P2;PMS_P1;PMS_P2;Temp;Humidity;BMP_temperature;BMP_pressure;BME280_temperature;BME280_humidity;BME280_pressure;Samples;Min_cycle;Max_cycle;Signal;HPM_P1;HPM_P2
2023/07/14 00:00:09;;;;;;;5.20;2.42;;;;;;;31.33;74.76;99716.34;5051064;28;20302;-71
2023/07/14 00:02:36;;;;;;;5.88;2.30;;;;;;;31.34;75.28;99710.88;5049840;28;20289;-72
2023/07/14 00:05:04;;;;;;;4.15;2.03;;;;;;;31.06;77.01;99668.41;5049855;28;20625;-72
2023/07/14 00:07:32;;;;;;;4.53;2.05;;;;;;;31.52;77.47;99702.44;5050888;28;20207;-71
2023/07/14 00:09:59;;;;;;;3.28;1.85;;;;;;;31.41;79.08;99688.00;5050518;28;20689;-72
2023/07/14 00:12:25;;;;;;;5.18;2.13;;;;;;;31.42;80.11;99684.34;5020393;28;20682;-72
2023/07/14 00:14:52;;;;;;;3.92;1.88;;;;;;;31.43;80.50;99683.38;5042996;28;20234;-71
2023/07/14 00:17:19;;;;;;;3.13;2.10;;;;;;;31.33;80.54;99652.03;5013813;28;20211;-71
2023/07/14 00:19:46;;;;;;;3.15;2.25;;;;;;;31.45;80.34;99668.03;5049819;28;20214;-71
2023/07/14 00:22:14;;;;;;;3.30;1.90;;;;;;;31.44;79.85;99650.25;5030839;28;20284;-72
2023/07/14 00:24:43;;;;;;;3.25;1.80;;;;;;;31.54;80.07;99639.66;5049599;28;20207;-73
2023/07/14 00:27:18;;;;;;;3.30;1.90;;;;;;;31.64;80.98;99651.41;5050597;28;20282;-72
2023/07/14 00:29:46;;;;;;;3.03;1.83;;;;;;;31.48;82.03;99645.50;5050200;28;20277;-72
2023/07/14 00:32:18;;;;;;;6.18;2.38;;;;;;;31.53;82.23;99640.66;5050492;28;20670;-72
2023/07/14 00:34:45;;;;;;;2.95;2.47;;;;;;;31.42;85.68;99665.59;5050272;28;20256;-72
2023/07/14 00:37:12;;;;;;;4.28;2.33;;;;;;;31.34;86.79;99664.47;5050289;28;20202;-72
2023/07/14 00:39:39;;;;;;;3.08;1.90;;;;;;;31.22;88.61;99660.91;5012325;28;20223;-73
2023/07/14 00:42:12;;;;;;;2.28;1.65;;;;;;;31.16;90.07;99644.44;5050462;28;20210;-72
2023/07/14 00:44:39;;;;;;;6.88;3.00;;;;;;;31.11;92.21;99658.19;5049148;28;20207;-72
2023/07/14 00:47:15;;;;;;;2.95;1.80;;;;;;;31.04;93.58;99661.47;5053773;28;20531;-72
2023/07/14 00:49:43;;;;;;;3.70;1.98;;;;;;;30.91;93.46;99643.63;5036377;28;20735;-72
2023/07/14 00:52:18;;;;;;;2.92;1.73;;;;;;;31.02;93.47;99668.75;5014872;28;20195;-72
2023/07/14 00:54:51;;;;;;;2.92;1.70;;;;;;;31.02;92.38;99682.16;5050283;28;20194;-72
2023/07/14 00:57:22;;;;;;;3.20;1.92;;;;;;;31.01;92.92;99701.84;5050231;28;20226;-72
2023/07/14 00:59:49;;;;;;;2.83;1.75;;;;;;;30.88;96.40;99721.50;5003101;28;20223;-72
2023/07/14 01:02:21;;;;;;;2.97;1.83;;;;;;;30.73;99.64;99727.13;5048797;28;20281;-73
2023/07/14 01:04:52;;;;;;;2.58;1.63;;;;;;;30.62;100.00;99729.75;5049939;28;20230;-74
2023/07/14 01:07:23;;;;;;;2.78;1.73;;;;;;;30.27;100.00;99726.91;5049909;28;20650;-71
2023/07/14 01:09:52;;;;;;;2.30;1.90;;;;;;;29.97;100.00;99717.44;5049774;28;20648;-72
2023/07/14 01:12:23;;;;;;;2.05;1.75;;;;;;;30.11;100.00;99729.00;5015082;28;20195;-72
2023/07/14 01:14:53;;;;;;;1.75;1.38;;;;;;;29.68;100.00;99713.22;5049206;28;20646;-73
2023/07/14 01:17:21;;;;;;;1.70;1.33;;;;;;;29.64;100.00;99735.81;5014921;28;20186;-73
2023/07/14 01:19:51;;;;;;;2.35;1.67;;;;;;;29.82;99.65;99742.53;5047735;28;20745;-72
2023/07/14 01:22:27;;;;;;;2.78;1.83;;;;;;;29.75;99.18;99753.78;5049966;28;20199;-72
2023/07/14 01:25:05;;;;;;;2.40;1.85;;;;;;;29.85;97.43;99760.22;5049553;28;20198;-72
2023/07/14 01:27:33;;;;;;;2.33;1.65;;;;;;;29.58;98.50;99743.34;5049732;28;20203;-71
2023/07/14 01:30:01;;;;;;;2.30;1.60;;;;;;;29.48;98.86;99736.00;5049529;28;20199;-72
2023/07/14 01:32:34;;;;;;;3.05;1.90;;;;;;;29.46;100.00;99761.97;5049665;28;20195;-72
2023/07/14 01:35:01;;;;;;;2.38;1.65;;;;;;;29.24;100.00;99766.13;5048625;28;20260;-73
2023/07/14 01:37:28;;;;;;;2.72;1.80;;;;;;;29.11;100.00;99755.41;5049749;28;20673;-71
2023/07/14 01:39:55;;;;;;;1.95;1.60;;;;;;;29.05;100.00;99764.69;5048680;28;20238;-72
2023/07/14 01:42:23;;;;;;;3.10;1.85;;;;;;;29.04;100.00;99764.78;5049638;28;20689;-72
2023/07/14 01:44:51;;;;;;;2.55;1.90;;;;;;;29.10;100.00;99763.53;5048892;28;20203;-70
2023/07/14 01:47:19;;;;;;;1.75;1.42;;;;;;;29.03;100.00;99755.94;5049495;28;20671;-70
2023/07/14 01:49:49;;;;;;;2.42;1.77;;;;;;;28.87;100.00;99733.84;5049510;28;20207;-69
2023/07/14 01:52:21;;;;;;;2.78;1.80;;;;;;;29.08;96.89;99762.75;5049535;28;20604;-70
2023/07/14 01:54:53;;;;;;;8.30;2.30;;;;;;;29.18;94.83;99780.75;5049411;28;20252;-69
2023/07/14 01:57:24;;;;;;;3.30;1.85;;;;;;;29.26;94.08;99796.25;5052294;28;20238;-70
2023/07/14 01:59:56;;;;;;;2.85;1.75;;;;;;;29.16;94.81;99785.34;5053173;28;20245;-69
2023/07/14 02:02:28;;;;;;;3.17;1.85;;;;;;;28.96;96.99;99781.31;5053218;28;20191;-70
2023/07/14 02:04:55;;;;;;;3.17;1.92;;;;;;;28.97;98.68;99798.19;5065815;28;20285;-70
2023/07/14 02:07:23;;;;;;;2.83;1.83;;;;;;;28.74;100.00;99791.69;5073272;28;20202;-70
2023/07/14 02:09:50;;;;;;;4.00;2.15;;;;;;;28.82;100.00;99809.88;5029433;28;20697;-71
2023/07/14 02:12:25;;;;;;;2.83;1.88;;;;;;;28.91;98.34;99834.16;5051352;28;20200;-70
2023/07/14 02:14:59;;;;;;;3.53;2.03;;;;;;;28.84;98.41;99846.19;5053312;28;20215;-70
2023/07/14 02:17:30;;;;;;;2.63;1.95;;;;;;;28.70;99.03;99856.00;5050915;28;20604;-70
2023/07/14 02:19:58;;;;;;;3.72;2.20;;;;;;;28.58;100.00;99838.91;5052335;28;20708;-70
2023/07/14 02:22:25;;;;;;;3.05;1.80;;;;;;;28.49;100.00;99832.38;5052790;28;20295;-70
2023/07/14 02:24:53;;;;;;;4.38;2.15;;;;;;;28.50;100.00;99828.72;5052951;28;20775;-69
2023/07/14 02:27:20;;;;;;;3.25;1.98;;;;;;;28.35;100.00;99823.50;5052742;28;20586;-68
2023/07/14 02:29:47;;;;;;;3.88;1.95;;;;;;;28.43;100.00;99829.22;5052510;28;20662;-70
2023/07/14 02:32:22;;;;;;;2.72;1.70;;;;;;;28.46;100.00;99829.03;5051642;28;20207;-70
2023/07/14 02:34:54;;;;;;;2.72;1.67;;;;;;;28.08;100.00;99839.38;5052777;28;20712;-70
2023/07/14 02:38:03;;;;;;;2.92;1.83;;;;;;;28.26;100.00;99848.91;5050703;28;20689;-70
2023/07/14 02:40:33;;;;;;;3.13;1.88;;;;;;;28.24;98.40;99860.66;5021112;28;20262;-70
2023/07/14 02:43:00;;;;;;;2.75;1.73;;;;;;;27.98;98.59;99828.38;5051937;28;20203;-70
2023/07/14 02:45:28;;;;;;;3.50;1.92;;;;;;;28.31;99.59;99926.00;5017112;28;20196;-70
2023/07/14 02:47:59;;;;;;;3.40;1.98;;;;;;;28.08;100.00;99946.88;5017182;28;20261;-70
2023/07/14 02:50:26;;;;;;;5.28;2.08;;;;;;;27.80;100.00;99935.22;5052167;28;20199;-69
2023/07/14 02:52:53;;;;;;;3.30;1.90;;;;;;;27.68;100.00;99904.84;5052608;28;20207;-69
2023/07/14 02:55:20;;;;;;;3.38;2.47;;;;;;;27.53;100.00;99917.25;5051600;28;20268;-69
2023/07/14 02:57:46;;;;;;;4.25;2.60;;;;;;;27.51;100.00;99912.91;5052238;28;20285;-69
2023/07/14 03:00:15;;;;;;;2.53;1.77;;;;;;;27.18;100.00;99877.53;5051764;28;20223;-69
2023/07/14 03:02:42;;;;;;;4.15;2.08;;;;;;;27.53;100.00;99948.34;5052436;28;20234;-69
2023/07/14 03:05:12;;;;;;;3.10;1.92;;;;;;;27.33;100.00;99945.88;5052359;28;20249;-69
2023/07/14 03:07:39;;;;;;;3.70;2.00;;;;;;;27.46;100.00;99944.31;5052018;28;20227;-68
2023/07/14 03:10:09;;;;;;;3.92;2.33;;;;;;;27.41;100.00;99930.34;5050419;28;20208;-69
2023/07/14 03:12:36;;;;;;;4.50;2.35;;;;;;;27.54;100.00;99976.69;5050447;28;20238;-69
2023/07/14 03:15:05;;;;;;;3.58;2.03;;;;;;;27.61;100.00;100004.72;5051475;28;20250;-70
2023/07/14 03:17:31;;;;;;;4.00;1.98;;;;;;;27.57;100.00;99989.84;5051824;28;20207;-71
2023/07/14 03:19:58;;;;;;;4.75;2.22;;;;;;;27.62;100.00;99995.75;5051544;28;20226;-69
2023/07/14 03:22:30;;;;;;;2.67;1.83;;;;;;;27.72;100.00;100009.44;5031627;28;20218;-69
2023/07/14 03:24:58;;;;;;;3.55;1.92;;;;;;;27.87;100.00;100009.41;5032019;28;20387;-72
2023/07/14 03:27:24;;;;;;;3.10;1.92;;;;;;;27.85;100.00;100003.31;5037609;28;20195;-69
2023/07/14 03:29:51;;;;;;;3.97;2.15;;;;;;;27.79;100.00;100005.50;5051412;28;20203;-69
2023/07/14 03:32:18;;;;;;;4.13;2.13;;;;;;;28.04;100.00;100025.28;5051083;28;20260;-71
2023/07/14 03:34:45;;;;;;;3.53;1.90;;;;;;;28.21;100.00;100042.19;5050392;28;20211;-70
2023/07/14 03:37:11;;;;;;;4.28;2.28;;;;;;;28.32;100.00;100048.63;5051253;28;20195;-69
2023/07/14 03:39:39;;;;;;;3.17;2.00;;;;;;;28.53;100.00;100073.16;5051346;28;20210;-69
2023/07/14 03:42:06;;;;;;;4.00;2.10;;;;;;;28.69;99.69;100086.47;5050705;28;20210;-72
2023/07/14 03:44:34;;;;;;;2.67;1.77;;;;;;;28.87;97.00;100077.38;5050299;28;20273;-73
2023/07/14 03:47:02;;;;;;;3.60;2.05;;;;;;;29.29;94.12;100104.16;5051532;28;20238;-73
2023/07/14 03:49:29;;;;;;;3.03;2.38;;;;;;;29.46;93.84;100116.50;5051478;28;20199;-73
2023/07/14 03:51:56;;;;;;;3.22;1.95;;;;;;;29.62;90.50;100106.53;5015411;28;20203;-74
2023/07/14 03:54:23;;;;;;;3.67;1.83;;;;;;;29.67;90.54;100125.84;5050953;28;20280;-72
2023/07/14 03:56:52;;;;;;;3.80;1.98;;;;;;;29.61;91.54;100112.84;5051231;28;20206;-76
2023/07/14 03:59:19;;;;;;;4.15;2.20;;;;;;;29.60;91.92;100156.56;5051509;28;20289;-75
2023/07/14 04:01:46;;;;;;;2.95;1.73;;;;;;;29.08;96.75;100201.56;5048859;28;21483;-74
2023/07/14 04:04:12;;;;;;;3.50;1.98;;;;;;;28.84;100.00;100193.22;5051703;28;20256;-79
2023/07/14 04:06:39;;;;;;;3.35;1.98;;;;;;;28.88;100.00;100161.84;5051090;28;20709;-72
2023/07/14 04:09:07;;;;;;;3.65;1.88;;;;;;;28.97;100.00;100196.88;5050495;28;20248;-72
2023/07/14 04:11:34;;;;;;;3.63;1.80;;;;;;;29.42;95.04;100184.44;5049273;28;20210;-72
2023/07/14 04:14:03;;;;;;;3.55;1.80;;;;;;;29.98;90.91;100189.81;5050848;28;20264;-73
2023/07/14 04:16:30;;;;;;;4.20;2.05;;;;;;;30.30;86.59;100213.66;5050945;28;20719;-72
2023/07/14 04:18:57;;;;;;;4.03;1.90;;;;;;;30.69;82.01;100213.75;5050510;28;20669;-72
2023/07/14 04:21:25;;;;;;;2.92;1.67;;;;;;;30.79;78.20;100203.28;5050612;28;20272;-72
2023/07/14 04:23:52;;;;;;;3.90;2.05;;;;;;;30.94;74.73;100221.03;5031005;28;20289;-73
2023/07/14 04:26:19;;;;;;;3.72;2.30;;;;;;;30.83;70.33;100227.09;5050862;28;20203;-73
2023/07/14 04:28:46;;;;;;;4.43;2.03;;;;;;;30.80;64.14;100243.38;5050569;28;20202;-73
2023/07/14 04:31:15;;;;;;;3.88;1.90;;;;;;;30.61;60.43;100264.25;5050485;28;20268;-72
2023/07/14 04:33:44;;;;;;;3.40;1.80;;;;;;;30.43;61.63;100270.81;5015882;28;20579;-72
2023/07/14 04:36:11;;;;;;;4.15;2.03;;;;;;;30.85;59.95;100277.91;5031958;28;20183;-73
2023/07/14 04:38:41;;;;;;;3.63;1.83;;;;;;;30.40;59.29;100279.00;5047468;28;21585;-72
2023/07/14 04:41:08;;;;;;;4.18;2.05;;;;;;;30.18;59.46;100273.31;5049556;28;20272;-73
2023/07/14 04:43:35;;;;;;;3.25;1.70;;;;;;;30.40;58.02;100263.81;5050177;28;20210;-73
2023/07/14 04:46:01;;;;;;;2.58;1.73;;;;;;;30.25;56.73;100280.00;5050440;28;20202;-71
2023/07/14 04:48:30;;;;;;;4.03;2.00;;;;;;;29.78;59.08;100259.69;5050205;28;20201;-72
2023/07/14 04:50:56;;;;;;;3.28;1.80;;;;;;;29.83;58.73;100214.81;5050066;28;20241;-71
2023/07/14 04:53:23;;;;;;;3.05;1.83;;;;;;;30.24;57.34;100284.47;5050313;28;20686;-73
2023/07/14 04:55:50;;;;;;;2.47;1.63;;;;;;;30.56;57.33;100281.59;5049193;28;20625;-72
2023/07/14 04:58:18;;;;;;;3.72;2.00;;;;;;;30.62;62.42;100282.06;5049514;28;20249;-75
2023/07/14 05:00:46;;;;;;;3.25;1.90;;;;;;;31.01;58.42;100288.47;5049828;28;20641;-74
2023/07/14 05:03:13;;;;;;;3.58;2.10;;;;;;;30.46;60.38;100286.69;5015256;28;20199;-74
2023/07/14 05:05:41;;;;;;;2.63;1.73;;;;;;;31.15;57.26;100301.81;5050079;28;20234;-72
2023/07/14 05:08:08;;;;;;;2.90;1.80;;;;;;;31.84;55.26;100286.34;5015251;28;20210;-72
2023/07/14 05:10:37;;;;;;;2.40;1.60;;;;;;;32.16;53.03;100286.78;5049381;28;20690;-84
2023/07/14 05:13:06;;;;;;;4.13;2.17;;;;;;;32.86;50.63;100297.81;5014842;28;20697;-73
2023/07/14 05:15:33;;;;;;;2.92;1.77;;;;;;;33.39;49.43;100281.22;5050146;28;20194;-73
2023/07/14 05:18:00;;;;;;;2.55;1.60;;;;;;;33.87;48.28;100262.31;5049038;28;20264;-72
2023/07/14 05:20:27;;;;;;;2.70;1.67;;;;;;;34.27;47.32;100292.34;5049989;28;20612;-72
2023/07/14 05:22:55;;;;;;;3.50;1.98;;;;;;;34.40;47.10;100262.56;5049939;28;20203;-72
2023/07/14 05:25:23;;;;;;;2.90;1.80;;;;;;;34.88;46.31;100276.63;5050173;28;20732;-74
2023/07/14 05:27:49;;;;;;;2.80;1.85;;;;;;;34.71;44.91;100257.28;5050066;28;20191;-71
2023/07/14 05:30:18;;;;;;;2.78;1.85;;;;;;;33.55;47.03;100232.50;5050266;28;20670;-70
2023/07/14 05:32:46;;;;;;;2.70;1.75;;;;;;;33.46;48.78;100225.19;5052321;28;20199;-71
2023/07/14 05:35:14;;;;;;;4.20;2.13;;;;;;;33.82;48.84;100246.50;5054013;28;20198;-71
2023/07/14 05:37:42;;;;;;;3.50;1.92;;;;;;;33.42;49.30;100247.91;5052870;28;20199;-71
2023/07/14 05:40:12;;;;;;;3.00;1.80;;;;;;;33.86;49.13;100261.44;5053673;28;20205;-71
2023/07/14 05:42:40;;;;;;;3.40;2.00;;;;;;;33.26;50.34;100240.13;5053008;28;20205;-71
2023/07/14 05:45:07;;;;;;;2.90;1.80;;;;;;;33.90;49.59;100227.06;5018279;28;20202;-71
2023/07/14 05:47:36;;;;;;;3.28;2.13;;;;;;;32.53;51.13;100230.44;5053649;28;20211;-71
2023/07/14 05:50:04;;;;;;;2.58;1.88;;;;;;;32.05;53.15;100234.81;5053742;28;20207;-71
2023/07/14 05:52:31;;;;;;;2.70;1.95;;;;;;;31.23;56.02;100241.41;5053289;28;20264;-71
2023/07/14 05:54:57;;;;;;;2.13;1.50;;;;;;;32.31;54.37;100236.53;5053388;28;20203;-71
2023/07/14 05:57:25;;;;;;;3.63;2.33;;;;;;;33.14;52.20;100245.59;5053105;28;20238;-71
2023/07/14 05:59:53;;;;;;;2.10;1.70;;;;;;;33.15;52.37;100226.66;5053511;28;20198;-71
2023/07/14 06:02:20;;;;;;;2.75;1.75;;;;;;;33.15;51.39;100236.53;5053545;28;20264;-71
2023/07/14 06:04:48;;;;;;;2.63;1.83;;;;;;;33.21;52.89;100246.84;5034212;28;20191;-71
2023/07/14 06:07:15;;;;;;;2.15;1.60;;;;;;;33.29;52.90;100260.53;5052822;28;20288;-72
2023/07/14 06:09:43;;;;;;;2.10;1.63;;;;;;;33.25;53.06;100261.75;5051604;28;20214;-71
2023/07/14 06:12:12;;;;;;;2.85;2.15;;;;;;;33.91;51.66;100279.06;5052540;28;20237;-72
2023/07/14 06:14:42;;;;;;;2.88;1.92;;;;;;;33.58;51.79;100280.69;5053204;28;20256;-72
2023/07/14 06:17:09;;;;;;;2.92;1.92;;;;;;;33.94;51.29;100258.16;5052697;28;20195;-71
2023/07/14 06:19:37;;;;;;;2.38;1.80;;;;;;;33.92;49.80;100178.53;5053013;28;20286;-70
2023/07/14 06:22:06;;;;;;;1.80;1.55;;;;;;;34.69;48.96;100296.97;5052927;28;20314;-71
2023/07/14 06:24:35;;;;;;;2.30;2.10;;;;;;;34.71;48.71;100295.00;5034216;28;20198;-72
2023/07/14 06:27:02;;;;;;;2.00;1.60;;;;;;;33.25;51.50;100291.31;5051477;28;20337;-72
2023/07/14 06:29:29;;;;;;;3.67;2.10;;;;;;;33.19;53.02;100289.09;5052430;28;20282;-71
2023/07/14 06:31:57;;;;;;;2.10;1.77;;;;;;;33.15;52.70;100293.84;5051102;28;20199;-71
2023/07/14 06:34:24;;;;;;;2.42;1.63;;;;;;;33.01;52.19;100287.75;5034013;28;20688;-72
2023/07/14 06:36:51;;;;;;;3.20;1.95;;;;;;;32.77;54.37;100288.63;5052911;28;20195;-71
2023/07/14 06:39:19;;;;;;;2.25;1.65;;;;;;;32.75;53.54;100278.94;5051667;28;20671;-71
2023/07/14 06:41:46;;;;;;;3.45;2.15;;;;;;;32.80;54.13;100271.41;5049995;28;22176;-71
2023/07/14 06:44:13;;;;;;;2.97;1.95;;;;;;;33.01;55.42;100275.19;5004072;28;20191;-71
2023/07/14 06:46:40;;;;;;;2.95;1.80;;;;;;;33.21;55.82;100276.41;5032576;28;20671;-71
2023/07/14 06:49:08;;;;;;;2.33;1.73;;;;;;;33.42;55.27;100272.09;5032729;28;20292;-71
2023/07/14 06:51:35;;;;;;;2.13;1.70;;;;;;;33.46;53.47;100275.41;5045473;28;20207;-72
2023/07/14 06:54:02;;;;;;;2.60;1.75;;;;;;;32.86;54.86;100282.56;5050506;28;20282;-71
2023/07/14 06:56:28;;;;;;;3.47;1.90;;;;;;;32.61;57.53;100266.53;5051465;28;20206;-72
2023/07/14 06:58:55;;;;;;;2.90;1.85;;;;;;;32.47;58.16;100269.31;5051489;28;20234;-71
2023/07/14 07:01:22;;;;;;;2.20;1.65;;;;;;;32.89;58.83;100268.88;5015282;28;20683;-72
2023/07/14 07:03:49;;;;;;;2.28;1.70;;;;;;;33.24;57.29;100268.13;5050728;28;20206;-71
2023/07/14 07:06:18;;;;;;;2.33;1.63;;;;;;;33.16;59.03;100254.41;5052440;28;20195;-72
2023/07/14 07:08:46;;;;;;;2.83;1.85;;;;;;;32.99;56.43;100265.53;5051657;28;20203;-72
2023/07/14 07:11:14;;;;;;;3.05;1.90;;;;;;;32.52;55.82;100256.44;5032615;28;20203;-71
2023/07/14 07:13:41;;;;;;;2.20;1.70;;;;;;;32.34;56.76;100236.28;5050575;28;20316;-72
2023/07/14 07:16:08;;;;;;;1.77;1.50;;;;;;;32.32;57.71;100246.31;5051609;28;20214;-71
2023/07/14 07:18:35;;;;;;;2.05;1.55;;;;;;;32.17;58.22;100245.56;5047888;28;20215;-71
2023/07/14 07:21:02;;;;;;;2.05;1.67;;;;;;;32.11;57.10;100243.31;5040602;28;20207;-71
2023/07/14 07:23:30;;;;;;;2.38;1.83;;;;;;;32.18;59.28;100241.03;5046987;28;20636;-71
2023/07/14 07:25:57;;;;;;;2.50;1.73;;;;;;;32.26;57.30;100244.91;5041959;28;20965;-70
2023/07/14 07:28:24;;;;;;;4.38;2.53;;;;;;;32.54;58.85;100243.75;5044647;28;20752;-70
2023/07/14 07:30:51;;;;;;;1.73;1.60;;;;;;;32.18;56.88;100241.03;5042500;28;20254;-71
2023/07/14 07:33:18;;;;;;;2.17;1.73;;;;;;;32.09;58.88;100237.22;5001288;28;20728;-71
2023/07/14 07:35:44;;;;;;;2.28;1.70;;;;;;;32.28;58.74;100242.13;5049923;28;20275;-70
2023/07/14 07:38:13;;;;;;;1.92;1.70;;;;;;;32.16;59.94;100248.34;5038034;28;20195;-70
2023/07/14 07:40:44;;;;;;;3.05;1.90;;;;;;;31.99;58.35;100228.06;5012586;28;20199;-70
2023/07/14 07:43:11;;;;;;;1.80;1.60;;;;;;;32.04;59.95;100241.13;5050683;28;20227;-71
2023/07/14 07:45:39;;;;;;;3.10;1.98;;;;;;;32.33;60.24;100245.31;5050447;28;20214;-70
2023/07/14 07:48:06;;;;;;;2.13;1.92;;;;;;;32.35;57.94;100246.06;5042624;28;20277;-70
2023/07/14 07:50:33;;;;;;;2.55;1.75;;;;;;;32.18;57.50;100246.41;5051322;28;20214;-71
2023/07/14 07:53:00;;;;;;;2.15;1.63;;;;;;;32.09;58.66;100257.81;5043860;28;20203;-70
2023/07/14 07:55:26;;;;;;;2.20;1.60;;;;;;;32.13;62.05;100227.13;5031414;28;20206;-71
2023/07/14 07:57:55;;;;;;;2.95;1.73;;;;;;;32.65;59.08;100242.97;5047916;28;20235;-71
2023/07/14 08:00:21;;;;;;;1.98;1.55;;;;;;;32.50;59.77;100246.78;5048372;28;20218;-70
2023/07/14 08:02:48;;;;;;;2.17;1.70;;;;;;;32.73;60.63;100245.97;5049965;28;20226;-70
2023/07/14 08:05:15;;;;;;;1.95;1.50;;;;;;;32.94;57.02;100247.06;5050306;28;20264;-70
2023/07/14 08:07:43;;;;;;;2.42;1.73;;;;;;;32.91;57.00;100253.53;5040976;28;20203;-70
2023/07/14 08:10:10;;;;;;;2.58;1.75;;;;;;;32.87;53.38;100246.66;5038148;28;20195;-71
2023/07/14 08:12:36;;;;;;;2.03;1.63;;;;;;;32.92;53.14;100236.44;5050449;28;20195;-71
2023/07/14 08:15:06;;;;;;;2.15;1.80;;;;;;;33.20;52.99;100237.06;5050460;28;20261;-70
2023/07/14 08:17:32;;;;;;;2.08;1.85;;;;;;;32.97;51.03;100236.06;5043737;28;20674;-71
2023/07/14 08:20:00;;;;;;;2.20;1.60;;;;;;;32.65;52.08;100213.44;5049999;28;20203;-71
2023/07/14 08:22:27;;;;;;;2.03;1.50;;;;;;;32.95;49.67;100227.28;5039964;28;20223;-70
2023/07/14 08:24:56;;;;;;;2.97;1.90;;;;;;;32.73;51.68;100232.53;5042885;28;20647;-72
2023/07/14 08:27:23;;;;;;;1.75;1.55;;;;;;;32.69;52.58;100214.94;5040591;28;20647;-72
2023/07/14 08:29:50;;;;;;;3.05;1.88;;;;;;;33.01;51.34;100225.94;5036205;28;20646;-72
2023/07/14 08:32:18;;;;;;;2.65;2.13;;;;;;;33.11;50.02;100194.75;5045414;28;20218;-72
2023/07/14 08:34:45;;;;;;;2.58;1.73;;;;;;;33.09;50.24;100229.78;5042511;28;20285;-73
2023/07/14 08:37:12;;;;;;;2.50;1.80;;;;;;;33.09;51.69;100207.41;5010655;28;20209;-71
2023/07/14 08:39:38;;;;;;;1.77;1.58;;;;;;;33.39;49.65;100232.00;5014412;28;20294;-72
2023/07/14 08:42:15;;;;;;;2.50;1.80;;;;;;;33.33;48.89;100210.94;5048735;28;20290;-71
2023/07/14 08:45:00;;;;;;;3.25;2.05;;;;;;;33.28;48.41;100222.03;5042253;28;20643;-71
2023/07/14 08:47:33;;;;;;;2.45;1.73;;;;;;;33.22;50.14;100213.59;5041970;28;20200;-72
2023/07/14 08:50:03;;;;;;;2.10;1.73;;;;;;;33.45;49.22;100198.38;5011258;28;20271;-72
2023/07/14 08:52:33;;;;;;;2.03;1.58;;;;;;;33.39;48.40;100189.81;5035982;28;20211;-71
2023/07/14 08:55:06;;;;;;;2.60;1.80;;;;;;;33.74;49.07;100213.13;5034707;28;20302;-84
2023/07/14 08:57:43;;;;;;;1.90;1.50;;;;;;;33.88;47.79;100205.69;5030484;28;20226;-80
2023/07/14 09:00:15;;;;;;;3.30;2.03;;;;;;;33.67;45.14;100203.84;5045459;28;20206;-81
2023/07/14 09:02:48;;;;;;;2.13;1.60;;;;;;;33.65;45.07;100195.88;5045591;28;20283;-81
2023/07/14 09:05:19;;;;;;;1.85;1.48;;;;;;;33.77;45.02;100215.59;5037708;28;20196;-81
2023/07/14 09:07:46;;;;;;;3.13;1.90;;;;;;;33.64;46.16;100202.22;5045862;28;21662;-77
2023/07/14 09:10:14;;;;;;;3.63;2.30;;;;;;;33.76;45.73;100187.81;5043143;28;20213;-76
2023/07/14 09:12:49;;;;;;;2.90;1.85;;;;;;;33.65;46.38;100176.19;5040718;28;20221;-78
2023/07/14 09:15:21;;;;;;;3.38;2.00;;;;;;;33.71;45.40;100214.22;5017612;28;20214;-74
2023/07/14 09:18:14;;;;;;;2.15;1.85;;;;;;;33.55;45.89;100196.69;5047344;28;20242;-73
2023/07/14 09:20:59;;;;;;;3.08;1.88;;;;;;;33.85;45.94;100192.44;5047177;28;20207;-73
2023/07/14 09:23:52;;;;;;;2.42;1.67;;;;;;;33.60;44.56;100160.41;5047521;28;20320;-73
2023/07/14 09:26:25;;;;;;;2.83;2.00;;;;;;;33.42;44.97;100161.84;5049110;28;20205;-73
2023/07/14 09:28:52;;;;;;;2.22;1.70;;;;;;;33.65;45.12;100198.56;5008408;28;20195;-75
2023/07/14 09:31:37;;;;;;;2.50;1.80;;;;;;;33.74;44.73;100189.78;5037224;28;20258;-78
2023/07/14 09:34:13;;;;;;;2.40;1.70;;;;;;;33.84;45.34;100180.00;5048486;28;20202;-76
2023/07/14 09:36:40;;;;;;;1.60;1.33;;;;;;;33.84;45.39;100190.75;5042280;28;20199;-77
2023/07/14 09:39:16;;;;;;;2.65;1.83;;;;;;;34.03;45.05;100184.78;5048637;28;20217;-77
2023/07/14 09:41:43;;;;;;;2.33;1.70;;;;;;;33.88;46.22;100186.84;5036996;28;20285;-73
2023/07/14 09:44:11;;;;;;;2.42;1.58;;;;;;;33.98;46.16;100186.09;5047371;28;20289;-71
2023/07/14 09:46:46;;;;;;;1.98;1.55;;;;;;;33.93;47.28;100177.56;5045936;28;20202;-71
2023/07/14 09:49:26;;;;;;;2.53;1.90;;;;;;;34.24;47.18;100174.13;5047976;28;20202;-72
2023/07/14 09:52:11;;;;;;;2.67;1.80;;;;;;;34.13;45.87;100176.81;5049105;28;20257;-71
2023/07/14 09:54:43;;;;;;;2.35;1.60;;;;;;;34.46;46.72;100160.56;5048402;28;20199;-72
2023/07/14 09:57:13;;;;;;;1.55;1.45;;;;;;;34.53;45.32;100171.72;5048158;28;20214;-71
2023/07/14 09:59:51;;;;;;;1.92;1.50;;;;;;;34.78;44.51;100174.94;5048746;28;20272;-73
2023/07/14 10:02:19;;;;;;;2.30;1.80;;;;;;;34.66;43.49;100167.91;5049069;28;20551;-72
2023/07/14 10:04:51;;;;;;;2.40;1.73;;;;;;;34.55;44.85;100165.22;5049839;28;20290;-72
2023/07/14 10:07:40;;;;;;;2.25;1.88;;;;;;;34.52;44.93;100162.78;5047810;28;20677;-72
2023/07/14 10:10:09;;;;;;;2.15;1.75;;;;;;;34.56;45.25;100155.31;5042392;28;20300;-72
2023/07/14 10:12:40;;;;;;;1.63;1.50;;;;;;;34.55;45.46;100140.97;5049438;28;20765;-71
2023/07/14 10:15:31;;;;;;;2.63;1.80;;;;;;;34.65;45.83;100150.03;5048919;28;20195;-72
2023/07/14 10:18:00;;;;;;;2.03;1.58;;;;;;;34.53;46.75;100151.03;5036140;28;20202;-72
2023/07/14 10:20:31;;;;;;;2.25;1.80;;;;;;;34.48;47.57;100114.69;5047242;28;20210;-73
2023/07/14 10:22:59;;;;;;;1.50;1.40;;;;;;;34.58;46.40;100153.31;5051957;28;20573;-72
2023/07/14 10:25:29;;;;;;;3.65;2.25;;;;;;;34.50;45.86;100140.50;5046979;28;20210;-83
2023/07/14 10:28:06;;;;;;;1.92;1.70;;;;;;;34.21;45.18;100107.06;5053220;28;20223;-76
2023/07/14 10:30:53;;;;;;;2.40;1.80;;;;;;;34.58;45.65;100150.63;5042817;28;20666;-76
2023/07/14 10:33:24;;;;;;;2.72;2.17;;;;;;;34.45;44.98;100142.72;5042735;28;20214;-76
2023/07/14 10:36:00;;;;;;;1.73;1.55;;;;;;;34.69;45.36;100139.84;5040756;28;20252;-76
2023/07/14 10:38:32;;;;;;;2.90;2.00;;;;;;;34.88;45.90;100134.63;5032693;28;20198;-72
2023/07/14 10:41:01;;;;;;;2.03;1.50;;;;;;;34.85;46.74;100133.03;5052263;28;20210;-72
2023/07/14 10:43:35;;;;;;;1.45;1.35;;;;;;;34.50;48.29;100112.72;5052294;28;20222;-77
2023/07/14 10:46:06;;;;;;;2.13;1.63;;;;;;;34.52;49.19;100127.78;5053325;28;20256;-74
2023/07/14 10:48:39;;;;;;;3.15;2.03;;;;;;;34.57;50.08;100136.31;5044548;28;20214;-76
2023/07/14 10:51:20;;;;;;;2.22;1.60;;;;;;;34.63;49.87;100127.75;5041158;28;20257;-80
2023/07/14 10:53:55;;;;;;;3.05;1.80;;;;;;;34.47;50.08;100139.91;5032294;28;20234;-75
2023/07/14 10:56:27;;;;;;;2.53;1.95;;;;;;;34.47;49.85;100127.28;5040183;28;20285;-72
2023/07/14 10:58:57;;;;;;;2.22;1.75;;;;;;;34.53;49.05;100118.72;5042917;28;20230;-71
2023/07/14 11:01:32;;;;;;;2.78;1.70;;;;;;;34.93;49.69;100126.13;5045117;28;20214;-72
2023/07/14 11:04:07;;;;;;;2.58;1.92;;;;;;;34.83;48.90;100102.66;5045293;28;20313;-71
2023/07/14 11:06:36;;;;;;;2.25;1.70;;;;;;;35.23;46.68;100128.94;5015442;28;20288;-71
2023/07/14 11:09:11;;;;;;;2.28;1.67;;;;;;;35.29;47.23;100125.69;5052379;28;20210;-71
2023/07/14 11:11:45;;;;;;;2.40;1.77;;;;;;;35.48;44.54;100127.63;5052194;28;20272;-71
2023/07/14 11:14:22;;;;;;;2.17;1.80;;;;;;;35.53;44.40;100123.53;5013312;28;20205;-70
2023/07/14 11:16:56;;;;;;;4.18;1.73;;;;;;;35.52;43.52;100121.00;5044376;28;20281;-70
2023/07/14 11:19:45;;;;;;;1.92;1.63;;;;;;;35.75;43.48;100120.69;5051924;28;20203;-70
2023/07/14 11:22:19;;;;;;;1.85;1.52;;;;;;;35.73;41.78;100122.69;5050785;28;20206;-71
2023/07/14 11:24:58;;;;;;;1.63;1.50;;;;;;;35.51;41.76;100120.13;5035576;28;20210;-71
2023/07/14 11:27:33;;;;;;;2.60;1.83;;;;;;;35.94;41.73;100113.66;5021692;28;20208;-71
2023/07/14 11:30:04;;;;;;;2.17;1.60;;;;;;;36.00;40.84;100119.34;5047699;28;20202;-70
2023/07/14 11:32:39;;;;;;;2.33;1.60;;;;;;;36.11;40.71;100111.16;5051248;28;20202;-71
2023/07/14 11:35:13;;;;;;;1.90;1.58;;;;;;;36.11;41.71;100113.00;4998445;28;20290;-71
2023/07/14 11:38:06;;;;;;;1.77;1.60;;;;;;;35.57;42.93;100113.31;5031558;28;20663;-70